Time;durP1;ratioP1;P1;durP2;ratioP2;P2;SDS_P1;SDS_P2;PMS_P1;PMS_P2;Temp;Humidity;BMP_temperature;BMP_pressure;BME280_temperature;BME280_humidity;BME280_pressure;Samples;Min_cycle;Max_cycle;Signal;HPM_P1;HPM_P2
2022/08/11 06:02:12;;;;;;;9.07;6.82;;;;;;;18.36;56.51;102117.00;3841468;23;20162;-81
2022/08/11 06:04:38;;;;;;;11.13;6.32;;;;;;;18.42;56.24;102119.97;4910406;29;20044;-81
2022/08/11 06:07:08;;;;;;;9.60;6.25;;;;;;;18.46;56.78;102126.78;4908398;29;20021;-81
2022/08/11 06:09:47;;;;;;;9.07;6.78;;;;;;;18.52;56.47;102128.06;4909646;29;20028;-79
2022/08/11 06:12:41;;;;;;;7.57;6.35;;;;;;;18.60;56.15;102124.69;4890077;29;20037;-81
2022/08/11 06:15:10;;;;;;;11.00;6.30;;;;;;;18.64;56.50;102124.25;4900425;29;20052;-80
2022/08/11 06:17:45;;;;;;;14.48;7.35;;;;;;;18.72;56.47;102117.31;4903945;29;20020;-82
2022/08/11 06:20:17;;;;;;;9.32;6.80;;;;;;;18.77;56.15;102123.13;4908088;29;20550;-81
2022/08/11 06:22:48;;;;;;;9.23;6.18;;;;;;;18.85;56.29;102121.50;4902423;29;20044;-81
2022/08/11 06:25:14;;;;;;;12.98;6.80;;;;;;;18.93;56.44;102114.53;4900643;29;20484;-80
2022/08/11 06:27:43;;;;;;;9.48;6.15;;;;;;;18.99;55.49;102117.53;4901274;29;20196;-81
2022/08/11 06:30:17;;;;;;;12.57;5.95;;;;;;;19.10;55.84;102124.63;4900856;29;20084;-81
2022/08/11 06:32:53;;;;;;;7.28;6.13;;;;;;;19.22;55.57;102119.94;4901324;29;20028;-80
2022/08/11 06:35:44;;;;;;;10.95;6.22;;;;;;;19.35;55.46;102123.19;4901881;29;20036;-80
2022/08/11 06:38:38;;;;;;;10.00;6.43;;;;;;;19.49;55.39;102127.25;4897576;29;20532;-80
2022/08/11 06:41:29;;;;;;;10.68;6.65;;;;;;;19.66;55.00;102125.66;4890234;29;20543;-81
2022/08/11 06:44:15;;;;;;;11.40;6.15;;;;;;;19.82;54.53;102126.91;4898232;29;20055;-82
2022/08/11 06:46:49;;;;;;;8.30;5.70;;;;;;;20.00;53.71;102130.56;4906343;29;20089;-81
2022/08/11 06:52:05;;;;;;;;;;;;;;;20.19;53.39;102126.06;4908542;29;20048;-82
2022/08/11 06:54:43;;;;;;;8.82;5.45;;;;;;;20.37;52.99;102135.06;4915976;29;19916;-81
2022/08/11 07:02:50;;;;;;;9.43;6.13;;;;;;;20.82;52.33;102130.69;4940454;29;20067;-81
2022/08/11 07:05:18;;;;;;;9.32;5.20;;;;;;;20.97;51.56;102122.88;4932353;29;20059;-81
2022/08/11 07:16:43;;;;;;;10.80;5.35;;;;;;;21.99;48.91;102124.94;4920097;29;20071;-81
2022/08/11 07:30:16;;;;;;;5.70;4.60;;;;;;;23.88;45.21;102123.50;4905637;29;20391;-82
2022/08/11 07:33:01;;;;;;;9.65;4.95;;;;;;;24.14;45.64;102115.09;4907988;29;20057;-82
2022/08/11 07:35:32;;;;;;;11.27;4.90;;;;;;;24.51;44.18;102114.38;4906324;29;20029;-83
2022/08/11 07:38:03;;;;;;;9.32;4.75;;;;;;;24.80;42.24;102120.16;4901318;29;20029;-80
2022/08/11 07:40:29;;;;;;;9.55;4.57;;;;;;;25.05;42.08;102115.41;4904075;29;20052;-82
2022/08/11 07:42:58;;;;;;;7.05;3.83;;;;;;;25.34;41.06;102121.97;4915471;29;20039;-82
2022/08/11 07:53:38;;;;;;;9.18;4.10;;;;;;;26.42;38.99;102122.44;4905384;29;20103;-80
2022/08/11 07:56:05;;;;;;;10.00;4.20;;;;;;;26.62;38.48;102107.16;4910675;29;20032;-80
2022/08/11 08:17:57;;;;;;;8.65;2.90;;;;;;;28.54;32.53;102111.38;4901398;29;19957;-81
2022/08/11 08:20:33;;;;;;;5.50;3.03;;;;;;;28.74;31.99;102119.66;4903470;29;20029;-81
2022/08/11 08:23:01;;;;;;;5.80;3.15;;;;;;;28.81;31.10;102116.09;4904353;29;20077;-82
2022/08/11 08:25:29;;;;;;;7.67;3.60;;;;;;;29.01;31.15;102116.97;4902207;29;20028;-80
2022/08/11 08:27:56;;;;;;;6.05;3.08;;;;;;;29.27;31.08;102110.66;4907217;29;20689;-81
2022/08/11 08:33:11;;;;;;;4.43;2.92;;;;;;;29.63;30.23;102117.56;4905211;29;20047;-82
2022/08/11 08:35:37;;;;;;;7.75;2.85;;;;;;;30.04;30.98;102123.78;4906607;29;20107;-81
2022/08/11 08:38:03;;;;;;;11.05;2.92;;;;;;;30.03;30.18;102112.00;4905995;29;20052;-81
2022/08/11 08:40:29;;;;;;;5.82;2.80;;;;;;;30.29;29.24;102110.19;4907097;29;20043;-81
2022/08/11 08:43:01;;;;;;;7.80;2.72;;;;;;;30.48;29.22;102111.19;4917382;29;20095;-82
2022/08/11 08:45:27;;;;;;;7.45;3.17;;;;;;;30.61;28.75;102105.59;4921401;29;20046;-81
2022/08/11 08:48:00;;;;;;;5.18;3.08;;;;;;;30.91;28.80;102104.97;4923168;29;20024;-82
2022/08/11 08:53:20;;;;;;;8.85;3.00;;;;;;;31.30;28.07;102099.38;4899351;29;20047;-82
2022/08/11 08:55:49;;;;;;;7.05;2.80;;;;;;;31.41;28.42;102104.13;4910853;29;20465;-81
2022/08/11 08:58:18;;;;;;;;;;;;;;;31.72;30.10;102100.44;4912643;29;20031;-81
2022/08/11 09:00:47;;;;;;;7.05;2.80;;;;;;;31.63;27.88;102101.81;4910864;29;19912;-82
2022/08/11 09:03:13;;;;;;;4.82;2.65;;;;;;;31.74;27.67;102097.44;4906194;29;20401;-81
2022/08/11 09:05:39;;;;;;;10.45;2.70;;;;;;;32.06;27.58;102097.28;4903670;29;20028;-82
2022/08/11 09:08:05;;;;;;;6.47;2.85;;;;;;;32.08;27.03;102098.75;4903473;29;20036;-82
2022/08/11 09:10:31;;;;;;;5.85;2.78;;;;;;;32.48;27.12;102096.53;4902220;29;20032;-81
2022/08/11 09:12:58;;;;;;;7.28;3.03;;;;;;;32.37;27.41;102098.16;4917704;29;20039;-82
2022/08/11 09:15:24;;;;;;;6.32;2.70;;;;;;;32.50;25.98;102094.38;4919914;29;20028;-80
2022/08/11 09:18:04;;;;;;;13.32;3.20;;;;;;;32.60;27.11;102100.16;4921880;29;20029;-81
2022/08/11 09:20:35;;;;;;;4.90;2.63;;;;;;;32.74;26.26;102101.66;4908169;29;20043;-81
2022/08/11 09:28:44;;;;;;;10.13;2.97;;;;;;;33.16;26.08;102087.03;4906547;29;20072;-81
2022/08/11 09:31:12;;;;;;;7.93;2.70;;;;;;;33.34;25.52;102086.88;4906053;29;20085;-80
2022/08/11 09:33:38;;;;;;;6.10;2.53;;;;;;;33.63;25.30;102092.47;4904443;29;20466;-81
2022/08/11 09:40:27;;;;;;;7.05;2.70;;;;;;;33.68;25.02;102083.47;4915195;29;20071;-81
2022/08/11 09:41:36;;;;;;;10.90;2.55;;;;;;;33.78;24.40;102082.91;4911760;29;20035;-81
2022/08/11 09:46:48;;;;;;;6.78;2.53;;;;;;;34.21;23.38;102081.56;4904298;29;20083;-82
2022/08/11 09:49:14;;;;;;;5.83;2.50;;;;;;;34.27;22.52;102086.09;4909473;29;20052;-82
2022/08/11 09:51:40;;;;;;;5.50;2.30;;;;;;;34.31;21.88;102081.75;4912288;29;20481;-83
2022/08/11 09:54:06;;;;;;;5.18;2.58;;;;;;;34.19;21.97;102076.28;4906691;29;20035;-82
2022/08/11 09:59:19;;;;;;;7.18;2.95;;;;;;;34.27;21.79;102070.41;4906787;29;20217;-82
2022/08/11 10:01:47;;;;;;;6.55;2.42;;;;;;;34.20;21.96;102066.06;4909436;29;20047;-81
2022/08/11 10:04:16;;;;;;;6.55;2.42;;;;;;;34.35;22.62;102066.38;4912954;29;20023;-82
2022/08/11 10:07:01;;;;;;;8.57;2.50;;;;;;;34.20;23.87;102066.06;4915030;29;20028;-81
2022/08/11 10:09:34;;;;;;;3.92;2.60;;;;;;;34.38;22.85;102065.06;4910479;29;20477;-82
2022/08/11 10:12:01;;;;;;;5.38;2.50;;;;;;;34.40;23.44;102051.84;4908092;29;20032;-82
2022/08/11 10:17:17;;;;;;;4.13;2.05;;;;;;;34.40;22.62;102054.59;4904475;29;20047;-81
2022/08/11 10:19:46;;;;;;;5.97;2.58;;;;;;;34.79;21.67;102049.22;4908941;29;20028;-80
2022/08/11 10:27:43;;;;;;;5.60;2.17;;;;;;;35.05;21.14;102044.09;4901754;29;20036;-82
2022/08/11 10:35:44;;;;;;;5.32;2.25;;;;;;;35.13;21.32;102041.72;4899325;29;20039;-81
2022/08/11 10:38:13;;;;;;;5.25;2.58;;;;;;;35.10;21.13;102038.66;4899153;29;20025;-81
2022/08/11 10:40:43;;;;;;;5.20;2.15;;;;;;;35.42;20.91;102044.34;4897953;29;20032;-81
2022/08/11 10:43:13;;;;;;;6.93;2.20;;;;;;;35.51;21.11;102029.00;4906317;29;20032;-82
2022/08/11 10:48:28;;;;;;;9.18;2.50;;;;;;;35.85;20.88;102028.88;4897570;29;20039;-82
2022/08/11 10:51:12;;;;;;;4.50;2.60;;;;;;;35.75;20.85;102028.75;4898328;29;20025;-82
2022/08/11 10:59:12;;;;;;;7.38;2.40;;;;;;;36.17;20.66;102024.50;4914186;29;19974;-82
2022/08/11 11:01:41;;;;;;;9.13;2.97;;;;;;;36.04;19.80;102025.75;4909216;29;20131;-83
2022/08/11 11:04:11;;;;;;;8.43;2.35;;;;;;;36.15;19.27;102018.41;4912429;29;20103;-82
2022/08/11 11:07:03;;;;;;;4.70;2.10;;;;;;;36.56;21.13;102010.50;4901081;29;20065;-81
2022/08/11 11:09:31;;;;;;;3.92;2.03;;;;;;;36.80;18.76;102010.97;4906977;29;20376;-82
2022/08/11 11:17:56;;;;;;;6.70;2.10;;;;;;;37.31;18.20;102000.19;4902124;29;20184;-82
2022/08/11 11:20:44;;;;;;;4.88;2.20;;;;;;;37.41;18.63;102007.72;4903854;29;20024;-82
2022/08/11 11:23:24;;;;;;;;;;;;;;;37.73;19.01;102010.34;4901243;29;20404;-81
2022/08/11 11:26:13;;;;;;;3.65;1.80;;;;;;;37.61;17.40;102006.97;4905326;29;19915;-82
2022/08/11 11:28:50;;;;;;;7.10;2.05;;;;;;;37.55;17.52;102006.09;4901102;29;20462;-83
2022/08/11 11:31:26;;;;;;;4.20;2.00;;;;;;;37.67;17.04;102011.41;4905471;29;20032;-82
2022/08/11 11:34:11;;;;;;;5.70;1.88;;;;;;;37.39;17.31;101998.84;4907852;29;20044;-81
2022/08/11 11:36:57;;;;;;;4.38;2.20;;;;;;;37.74;17.18;102002.88;4916646;29;20047;-82
2022/08/11 11:39:24;;;;;;;5.63;2.05;;;;;;;37.57;16.93;101998.34;4906960;29;20025;-83
2022/08/11 11:41:53;;;;;;;5.90;2.00;;;;;;;37.50;16.85;101997.75;4917980;29;20043;-83
2022/08/11 11:44:21;;;;;;;4.80;2.10;;;;;;;37.15;16.64;101993.72;4923348;29;20032;-81
2022/08/11 11:46:47;;;;;;;6.28;2.17;;;;;;;37.21;16.49;101995.44;4914767;29;20067;-81
2022/08/11 11:49:21;;;;;;;4.38;1.85;;;;;;;37.06;16.55;101986.19;4903301;29;20057;-81
2022/08/11 11:51:47;;;;;;;5.22;2.03;;;;;;;37.32;16.92;101987.16;4902384;29;20035;-81
2022/08/11 11:54:15;;;;;;;10.20;2.20;;;;;;;37.12;16.51;101982.34;4918811;29;20370;-81
2022/08/11 11:56:42;;;;;;;2.20;2.00;;;;;;;37.11;16.93;101981.50;4908164;29;20107;-81
2022/08/11 12:01:55;;;;;;;4.10;1.83;;;;;;;37.10;16.65;101979.84;4905874;29;20067;-81
2022/08/11 12:04:22;;;;;;;5.07;1.90;;;;;;;37.15;17.09;101977.09;4910935;29;20112;-82
2022/08/11 12:06:48;;;;;;;7.13;2.00;;;;;;;37.17;17.06;101969.38;4907910;29;20435;-82
2022/08/11 12:09:17;;;;;;;3.72;2.15;;;;;;;37.10;16.85;101971.53;4901762;29;20028;-82
2022/08/11 12:14:27;;;;;;;8.32;2.03;;;;;;;37.18;17.35;101956.34;4898295;29;20104;-82
2022/08/11 12:16:54;;;;;;;4.63;1.90;;;;;;;37.38;17.85;101961.16;4903102;29;20093;-83
2022/08/11 12:19:23;;;;;;;4.28;2.35;;;;;;;37.19;16.57;101967.19;4903377;29;20058;-82
2022/08/11 12:27:19;;;;;;;6.07;2.47;;;;;;;37.11;16.93;101962.13;4901351;29;20040;-82
2022/08/11 12:29:47;;;;;;;5.95;1.95;;;;;;;36.92;17.46;101956.19;4899590;29;20024;-81
2022/08/11 12:32:13;;;;;;;;;;;;;;;37.36;18.87;101957.81;4914926;29;20084;-81
2022/08/11 12:34:38;;;;;;;3.92;2.08;;;;;;;36.78;18.30;101950.31;4907655;29;19994;-81
2022/08/11 12:37:09;;;;;;;7.68;2.10;;;;;;;36.88;17.33;101945.94;4913184;29;20036;-81
2022/08/11 12:45:26;;;;;;;3.65;1.92;;;;;;;36.71;17.39;101923.97;4900677;29;20111;-82
2022/08/11 12:53:28;;;;;;;2.97;1.80;;;;;;;36.24;16.82;101923.66;4899751;29;20087;-83
2022/08/11 12:58:41;;;;;;;3.47;1.95;;;;;;;36.05;17.83;101920.41;4904692;29;20412;-83
2022/08/11 13:06:37;;;;;;;3.30;2.00;;;;;;;35.55;18.32;101916.88;4900464;29;20076;-82
2022/08/11 13:09:05;;;;;;;5.38;2.20;;;;;;;35.42;17.55;101913.69;4905758;29;20120;-82
2022/08/11 13:14:26;;;;;;;3.03;1.95;;;;;;;35.09;17.65;101896.13;4898462;29;20424;-81
2022/08/11 13:19:36;;;;;;;4.53;1.80;;;;;;;34.99;17.45;101888.56;4900176;29;19918;-81
2022/08/11 13:22:03;;;;;;;2.33;1.75;;;;;;;34.91;18.00;101889.88;4920936;29;20058;-82
2022/08/11 13:24:32;;;;;;;3.13;1.98;;;;;;;34.81;17.93;101889.75;4906831;29;20063;-81
2022/08/11 13:26:58;;;;;;;2.65;1.90;;;;;;;34.74;17.85;101884.41;4902657;29;20016;-81
2022/08/11 13:29:26;;;;;;;5.65;2.03;;;;;;;34.69;17.80;101895.34;4901369;29;20091;-81
2022/08/11 13:31:54;;;;;;;3.70;1.63;;;;;;;34.44;17.90;101885.59;4900923;29;20075;-81
2022/08/11 13:34:21;;;;;;;;;;;;;;;34.70;18.60;101887.88;4906747;29;20028;-81
2022/08/11 13:36:50;;;;;;;4.38;2.05;;;;;;;34.17;19.11;101870.81;4903215;29;20331;-80
2022/08/11 13:39:17;;;;;;;4.15;2.40;;;;;;;34.06;18.95;101886.34;4901854;29;20110;-82
2022/08/11 13:41:44;;;;;;;5.10;1.90;;;;;;;33.88;18.80;101888.25;4900830;29;20028;-81
2022/08/11 13:44:11;;;;;;;4.57;1.92;;;;;;;33.88;19.54;101873.66;4900589;29;20100;-81
2022/08/11 13:46:38;;;;;;;3.00;2.05;;;;;;;33.80;19.64;101885.06;4903973;29;20025;-81
2022/08/11 13:49:07;;;;;;;5.05;2.00;;;;;;;33.68;17.96;101885.97;4899365;29;20140;-82
2022/08/11 13:51:33;;;;;;;;;;;;;;;33.89;19.10;101883.56;4914006;29;20024;-82
2022/08/11 13:54:04;;;;;;;4.45;1.98;;;;;;;33.44;18.42;101874.22;4937133;29;19915;-82
2022/08/11 13:56:31;;;;;;;3.97;1.80;;;;;;;33.38;18.69;101873.25;4919840;29;20044;-82
2022/08/11 13:58:58;;;;;;;5.18;1.98;;;;;;;33.35;19.41;101871.00;4914910;29;20173;-80
2022/08/11 14:01:27;;;;;;;5.07;2.10;;;;;;;33.28;19.74;101869.50;4915859;29;20053;-80
2022/08/11 14:03:55;;;;;;;4.38;2.13;;;;;;;33.11;19.53;101869.38;4915278;29;20046;-81
2022/08/11 14:06:21;;;;;;;4.70;2.10;;;;;;;33.01;19.74;101865.34;4910936;29;20060;-81
2022/08/11 14:08:52;;;;;;;5.15;2.60;;;;;;;32.94;18.96;101863.81;4908972;29;20032;-81
2022/08/11 14:14:05;;;;;;;4.85;2.40;;;;;;;32.85;19.08;101860.59;4915856;29;20051;-80
2022/08/11 14:16:31;;;;;;;;;;;;;;;33.06;20.17;101858.25;4911220;29;20486;-81
2022/08/11 14:19:01;;;;;;;6.85;2.00;;;;;;;32.81;19.65;101859.44;4895357;29;20252;-81
2022/08/11 14:24:16;;;;;;;9.07;2.72;;;;;;;32.74;20.45;101855.97;4889315;29;20121;-81
2022/08/11 14:26:43;;;;;;;4.75;2.10;;;;;;;32.72;20.69;101858.13;4902596;29;20033;-80
2022/08/11 14:29:14;;;;;;;6.85;2.53;;;;;;;32.65;20.73;101844.50;4918646;29;20028;-80
2022/08/11 14:31:47;;;;;;;21.77;3.33;;;;;;;32.62;21.03;101848.56;4904976;29;20396;-80
2022/08/11 14:34:14;;;;;;;37.75;4.45;;;;;;;32.62;20.85;101848.56;4918857;29;20040;-81
2022/08/11 14:36:46;;;;;;;16.02;3.78;;;;;;;32.58;20.57;101852.00;4915265;29;20028;-80
2022/08/11 14:39:37;;;;;;;7.70;2.60;;;;;;;32.57;20.57;101844.84;4900685;29;20366;-79
2022/08/11 14:47:42;;;;;;;6.05;2.10;;;;;;;32.26;20.77;101844.97;4922808;29;20042;-81
2022/08/11 14:50:13;;;;;;;6.60;2.25;;;;;;;32.17;21.16;101843.66;4898958;29;20509;-80
2022/08/11 14:52:50;;;;;;;6.97;2.20;;;;;;;32.20;21.55;101836.84;4904748;29;20127;-80
2022/08/11 14:58:03;;;;;;;9.20;2.10;;;;;;;32.17;21.76;101831.81;4908868;29;20064;-81
2022/08/11 15:00:30;;;;;;;6.22;2.60;;;;;;;32.22;21.25;101832.75;4904749;29;20032;-80
2022/08/11 15:03:11;;;;;;;4.88;2.35;;;;;;;32.16;20.78;101830.13;4897436;29;20056;-82
2022/08/11 15:06:06;;;;;;;7.53;2.30;;;;;;;32.13;21.76;101827.88;4916744;29;20127;-81
2022/08/11 15:08:55;;;;;;;6.57;2.58;;;;;;;31.95;21.33;101824.13;4890596;29;20041;-81
2022/08/11 15:14:09;;;;;;;4.97;2.35;;;;;;;31.79;21.49;101822.06;4912654;29;20048;-82
2022/08/11 15:19:28;;;;;;;4.90;2.35;;;;;;;31.75;21.79;101820.88;4896070;29;20144;-80
2022/08/11 15:24:39;;;;;;;3.95;2.40;;;;;;;31.68;21.76;101810.00;4919228;29;20051;-80
2022/08/11 15:38:16;;;;;;;8.15;2.30;;;;;;;31.36;21.16;101805.59;4915284;29;20459;-82
2022/08/11 15:46:29;;;;;;;4.65;2.20;;;;;;;31.33;21.78;101797.81;4909523;29;20048;-83
2022/08/11 15:49:01;;;;;;;4.72;2.20;;;;;;;31.34;21.93;101787.66;4907148;29;20025;-83
2022/08/11 15:51:35;;;;;;;3.80;2.45;;;;;;;31.34;22.25;101793.16;4919475;29;20071;-83
2022/08/11 15:54:07;;;;;;;4.97;2.20;;;;;;;31.35;21.69;101797.56;4913614;29;20067;-83
2022/08/11 15:56:37;;;;;;;7.93;2.50;;;;;;;31.30;21.35;101798.28;4908716;29;20088;-83
2022/08/11 16:04:40;;;;;;;2.78;2.03;;;;;;;31.27;22.24;101789.66;4917950;29;20452;-84
2022/08/11 16:07:10;;;;;;;2.40;2.03;;;;;;;31.23;22.88;101783.00;4909201;29;20096;-83
2022/08/11 16:09:51;;;;;;;8.88;2.05;;;;;;;31.24;21.96;101787.38;4908404;29;20033;-83
2022/08/11 16:12:21;;;;;;;3.63;2.15;;;;;;;31.15;22.45;101779.47;4904171;29;21034;-83
2022/08/11 16:17:44;;;;;;;7.53;2.45;;;;;;;31.21;22.51;101779.63;4911372;29;20101;-83
2022/08/11 16:20:13;;;;;;;2.63;1.92;;;;;;;31.13;21.82;101778.06;4903470;29;20029;-83
2022/08/11 16:22:42;;;;;;;4.00;2.00;;;;;;;31.08;22.34;101772.44;4904174;29;20036;-81
2022/08/11 16:25:14;;;;;;;2.85;1.90;;;;;;;31.05;21.52;101779.22;4904252;29;20484;-82
2022/08/11 16:27:46;;;;;;;3.70;2.00;;;;;;;31.01;20.90;101764.28;4903587;29;20480;-84
2022/08/11 16:30:13;;;;;;;3.50;1.95;;;;;;;30.99;21.24;101766.41;4910043;29;20573;-84
2022/08/11 16:32:42;;;;;;;5.68;1.88;;;;;;;30.92;21.42;101766.47;4898516;29;20473;-83
2022/08/11 16:40:45;;;;;;;3.42;1.98;;;;;;;30.88;21.85;101758.94;4913909;29;20058;-83
2022/08/11 16:48:48;;;;;;;5.63;2.13;;;;;;;30.74;22.02;101759.13;4905221;29;20123;-83
2022/08/11 16:51:14;;;;;;;5.95;2.15;;;;;;;30.83;22.48;101756.03;4908100;29;20037;-83
2022/08/11 16:53:43;;;;;;;5.13;2.30;;;;;;;30.78;23.89;101745.78;4904834;29;20106;-80
2022/08/11 16:56:15;;;;;;;5.65;1.92;;;;;;;30.74;22.70;101742.69;4902218;29;20067;-81
2022/08/11 17:01:26;;;;;;;3.10;1.90;;;;;;;30.77;22.96;101752.31;4898729;29;20197;-83
2022/08/11 17:18:03;;;;;;;3.65;1.95;;;;;;;30.62;23.19;101734.34;4900300;29;20047;-81
2022/08/11 17:20:30;;;;;;;7.60;2.38;;;;;;;30.56;23.27;101738.03;4902674;29;20106;-80
2022/08/11 17:25:42;;;;;;;5.72;2.10;;;;;;;30.42;23.47;101739.25;4911443;29;20058;-81
2022/08/11 17:28:09;;;;;;;4.57;2.00;;;;;;;30.36;23.10;101735.53;4902088;29;20035;-82
2022/08/11 17:36:05;;;;;;;7.03;1.60;;;;;;;30.20;23.19;101738.84;4910530;29;20043;-81
2022/08/11 17:38:32;;;;;;;4.00;2.10;;;;;;;30.15;23.48;101738.69;4904487;29;20027;-80
2022/08/11 17:49:30;;;;;;;5.20;1.70;;;;;;;29.97;23.92;101743.06;4915273;29;20059;-82
2022/08/11 18:00:11;;;;;;;3.33;2.10;;;;;;;29.71;25.75;101741.38;4909299;29;20082;-82
2022/08/11 18:05:33;;;;;;;2.65;1.77;;;;;;;29.54;26.15;101738.34;4910354;29;20123;-82
